sensor_id;sensor_type;location;lat;lon;timestamp;P1;durP1;ratioP1;P2;durP2;ratioP2
13079;SDS011;6606;49.154;9.280;2023-04-23T00:02:17;7.00;;;4.10;;
13079;SDS011;6606;49.154;9.280;2023-04-23T00:05:04;5.80;;;4.10;;
13079;SDS011;6606;49.154;9.280;2023-04-23T00:07:47;4.53;;;4.13;;
13079;SDS011;6606;49.154;9.280;2023-04-23T00:10:30;5.37;;;4.20;;
13079;SDS011;6606;49.154;9.280;2023-04-23T00:13:12;4.37;;;3.90;;
13079;SDS011;6606;49.154;9.280;2023-04-23T00:15:55;4.87;;;4.33;;
13079;SDS011;6606;49.154;9.280;2023-04-23T00:18:38;5.30;;;4.10;;
13079;SDS011;6606;49.154;9.280;2023-04-23T00:21:21;4.37;;;3.97;;
13079;SDS011;6606;49.154;9.280;2023-04-23T00:24:04;5.10;;;3.93;;
13079;SDS011;6606;49.154;9.280;2023-04-23T00:26:47;5.23;;;3.80;;
13079;SDS011;6606;49.154;9.280;2023-04-23T00:29:29;5.13;;;4.63;;
13079;SDS011;6606;49.154;9.280;2023-04-23T00:32:11;8.07;;;5.03;;
13079;SDS011;6606;49.154;9.280;2023-04-23T00:34:54;5.40;;;3.93;;
13079;SDS011;6606;49.154;9.280;2023-04-23T00:37:38;6.33;;;4.63;;
13079;SDS011;6606;49.154;9.280;2023-04-23T00:40:19;5.90;;;4.10;;
13079;SDS011;6606;49.154;9.280;2023-04-23T00:43:03;7.57;;;4.67;;
13079;SDS011;6606;49.154;9.280;2023-04-23T00:45:45;5.20;;;4.23;;
13079;SDS011;6606;49.154;9.280;2023-04-23T00:48:29;6.47;;;4.43;;
13079;SDS011;6606;49.154;9.280;2023-04-23T00:51:12;7.27;;;4.33;;
13079;SDS011;6606;49.154;9.280;2023-04-23T00:53:58;5.60;;;4.30;;
13079;SDS011;6606;49.154;9.280;2023-04-23T00:56:39;6.53;;;4.20;;
13079;SDS011;6606;49.154;9.280;2023-04-23T00:59:21;7.13;;;4.80;;
13079;SDS011;6606;49.154;9.280;2023-04-23T01:02:03;8.70;;;4.30;;
13079;SDS011;6606;49.154;9.280;2023-04-23T01:04:45;4.43;;;3.80;;
13079;SDS011;6606;49.154;9.280;2023-04-23T01:07:31;6.77;;;4.13;;
13079;SDS011;6606;49.154;9.280;2023-04-23T01:10:17;5.33;;;4.43;;
13079;SDS011;6606;49.154;9.280;2023-04-23T01:12:59;5.87;;;4.20;;
13079;SDS011;6606;49.154;9.280;2023-04-23T01:15:43;7.80;;;4.37;;
13079;SDS011;6606;49.154;9.280;2023-04-23T01:18:26;5.23;;;4.23;;
13079;SDS011;6606;49.154;9.280;2023-04-23T01:21:09;5.43;;;4.10;;
13079;SDS011;6606;49.154;9.280;2023-04-23T01:23:55;6.33;;;4.33;;
13079;SDS011;6606;49.154;9.280;2023-04-23T01:26:39;4.93;;;4.10;;
13079;SDS011;6606;49.154;9.280;2023-04-23T01:29:22;7.97;;;3.90;;
13079;SDS011;6606;49.154;9.280;2023-04-23T01:32:06;7.87;;;4.27;;
13079;SDS011;6606;49.154;9.280;2023-04-23T01:34:52;6.93;;;4.67;;
13079;SDS011;6606;49.154;9.280;2023-04-23T01:37:36;6.57;;;5.10;;
13079;SDS011;6606;49.154;9.280;2023-04-23T01:40:20;7.53;;;5.07;;
13079;SDS011;6606;49.154;9.280;2023-04-23T01:43:03;8.33;;;5.23;;
13079;SDS011;6606;49.154;9.280;2023-04-23T01:45:48;8.37;;;5.13;;
13079;SDS011;6606;49.154;9.280;2023-04-23T01:48:30;6.13;;;4.63;;
13079;SDS011;6606;49.154;9.280;2023-04-23T01:51:12;7.13;;;4.83;;
13079;SDS011;6606;49.154;9.280;2023-04-23T01:53:55;5.30;;;4.63;;
13079;SDS011;6606;49.154;9.280;2023-04-23T01:56:39;6.57;;;4.97;;
13079;SDS011;6606;49.154;9.280;2023-04-23T01:59:21;6.80;;;5.10;;
13079;SDS011;6606;49.154;9.280;2023-04-23T02:02:03;5.83;;;4.57;;
13079;SDS011;6606;49.154;9.280;2023-04-23T02:04:49;6.83;;;5.50;;
13079;SDS011;6606;49.154;9.280;2023-04-23T02:07:35;6.53;;;5.27;;
13079;SDS011;6606;49.154;9.280;2023-04-23T02:10:19;7.50;;;5.43;;
13079;SDS011;6606;49.154;9.280;2023-04-23T02:13:04;8.43;;;5.80;;
13079;SDS011;6606;49.154;9.280;2023-04-23T02:15:46;7.83;;;5.53;;
13079;SDS011;6606;49.154;9.280;2023-04-23T02:18:28;7.87;;;5.50;;
13079;SDS011;6606;49.154;9.280;2023-04-23T02:21:10;8.10;;;5.67;;
13079;SDS011;6606;49.154;9.280;2023-04-23T02:23:52;8.33;;;5.67;;
13079;SDS011;6606;49.154;9.280;2023-04-23T02:26:34;5.43;;;4.93;;
13079;SDS011;6606;49.154;9.280;2023-04-23T02:29:18;7.87;;;5.10;;
13079;SDS011;6606;49.154;9.280;2023-04-23T02:32:00;5.73;;;5.13;;
13079;SDS011;6606;49.154;9.280;2023-04-23T02:34:42;5.63;;;4.97;;
13079;SDS011;6606;49.154;9.280;2023-04-23T02:37:24;5.70;;;5.07;;
13079;SDS011;6606;49.154;9.280;2023-04-23T02:40:07;8.73;;;5.53;;
13079;SDS011;6606;49.154;9.280;2023-04-23T02:42:51;7.90;;;4.93;;
13079;SDS011;6606;49.154;9.280;2023-04-23T02:45:35;8.10;;;5.60;;
13079;SDS011;6606;49.154;9.280;2023-04-23T02:48:17;6.63;;;5.00;;
13079;SDS011;6606;49.154;9.280;2023-04-23T02:51:00;6.67;;;4.87;;
13079;SDS011;6606;49.154;9.280;2023-04-23T02:53:43;6.67;;;5.23;;
13079;SDS011;6606;49.154;9.280;2023-04-23T02:56:24;6.33;;;4.83;;
13079;SDS011;6606;49.154;9.280;2023-04-23T02:59:08;5.57;;;4.57;;
13079;SDS011;6606;49.154;9.280;2023-04-23T03:01:53;5.37;;;4.73;;
13079;SDS011;6606;49.154;9.280;2023-04-23T03:04:36;5.60;;;4.37;;
13079;SDS011;6606;49.154;9.280;2023-04-23T03:07:17;8.67;;;4.70;;
13079;SDS011;6606;49.154;9.280;2023-04-23T03:10:00;4.77;;;4.23;;
13079;SDS011;6606;49.154;9.280;2023-04-23T03:12:43;9.10;;;4.33;;
13079;SDS011;6606;49.154;9.280;2023-04-23T03:15:25;6.50;;;4.80;;
13079;SDS011;6606;49.154;9.280;2023-04-23T03:18:09;6.37;;;4.13;;
13079;SDS011;6606;49.154;9.280;2023-04-23T03:20:51;4.30;;;3.83;;
13079;SDS011;6606;49.154;9.280;2023-04-23T03:23:34;5.30;;;4.77;;
13079;SDS011;6606;49.154;9.280;2023-04-23T03:26:16;6.33;;;4.37;;
13079;SDS011;6606;49.154;9.280;2023-04-23T03:28:58;4.77;;;3.97;;
13079;SDS011;6606;49.154;9.280;2023-04-23T03:31:58;5.23;;;4.13;;
13079;SDS011;6606;49.154;9.280;2023-04-23T03:34:41;6.33;;;4.27;;
13079;SDS011;6606;49.154;9.280;2023-04-23T03:37:24;6.13;;;4.60;;
13079;SDS011;6606;49.154;9.280;2023-04-23T03:40:06;5.87;;;4.60;;
13079;SDS011;6606;49.154;9.280;2023-04-23T03:42:52;5.23;;;4.33;;
13079;SDS011;6606;49.154;9.280;2023-04-23T03:45:42;4.87;;;4.00;;
13079;SDS011;6606;49.154;9.280;2023-04-23T03:48:24;4.87;;;3.90;;
13079;SDS011;6606;49.154;9.280;2023-04-23T03:51:08;5.47;;;4.10;;
13079;SDS011;6606;49.154;9.280;2023-04-23T03:53:55;5.53;;;4.43;;
13079;SDS011;6606;49.154;9.280;2023-04-23T03:56:46;5.90;;;3.70;;
13079;SDS011;6606;49.154;9.280;2023-04-23T03:59:32;4.60;;;4.10;;
13079;SDS011;6606;49.154;9.280;2023-04-23T04:02:13;8.80;;;6.17;;
13079;SDS011;6606;49.154;9.280;2023-04-23T04:04:55;5.53;;;4.50;;
13079;SDS011;6606;49.154;9.280;2023-04-23T04:07:39;7.13;;;4.70;;
13079;SDS011;6606;49.154;9.280;2023-04-23T04:10:21;5.50;;;4.37;;
13079;SDS011;6606;49.154;9.280;2023-04-23T04:13:03;6.87;;;5.20;;
13079;SDS011;6606;49.154;9.280;2023-04-23T04:15:45;6.10;;;4.63;;
13079;SDS011;6606;49.154;9.280;2023-04-23T04:18:28;9.53;;;5.17;;
13079;SDS011;6606;49.154;9.280;2023-04-23T04:21:10;7.03;;;5.40;;
13079;SDS011;6606;49.154;9.280;2023-04-23T04:23:53;11.93;;;4.77;;
13079;SDS011;6606;49.154;9.280;2023-04-23T04:26:36;5.47;;;4.40;;
13079;SDS011;6606;49.154;9.280;2023-04-23T04:29:18;5.77;;;4.43;;
13079;SDS011;6606;49.154;9.280;2023-04-23T04:32:03;5.37;;;4.37;;
13079;SDS011;6606;49.154;9.280;2023-04-23T04:34:44;4.70;;;4.20;;
13079;SDS011;6606;49.154;9.280;2023-04-23T04:37:29;6.93;;;4.30;;
13079;SDS011;6606;49.154;9.280;2023-04-23T04:40:12;5.13;;;3.90;;
13079;SDS011;6606;49.154;9.280;2023-04-23T04:42:55;6.93;;;4.63;;
13079;SDS011;6606;49.154;9.280;2023-04-23T04:45:39;7.20;;;3.80;;
13079;SDS011;6606;49.154;9.280;2023-04-23T04:48:24;4.43;;;3.17;;
13079;SDS011;6606;49.154;9.280;2023-04-23T04:51:09;3.87;;;2.90;;
13079;SDS011;6606;49.154;9.280;2023-04-23T04:53:51;4.33;;;3.20;;
13079;SDS011;6606;49.154;9.280;2023-04-23T04:56:35;4.20;;;2.93;;
13079;SDS011;6606;49.154;9.280;2023-04-23T04:59:17;4.67;;;3.07;;
13079;SDS011;6606;49.154;9.280;2023-04-23T05:01:59;3.27;;;2.47;;
13079;SDS011;6606;49.154;9.280;2023-04-23T05:04:41;4.67;;;3.30;;
13079;SDS011;6606;49.154;9.280;2023-04-23T05:07:24;3.67;;;2.80;;
13079;SDS011;6606;49.154;9.280;2023-04-23T05:10:06;5.23;;;2.80;;
13079;SDS011;6606;49.154;9.280;2023-04-23T05:12:50;3.17;;;2.50;;
13079;SDS011;6606;49.154;9.280;2023-04-23T05:15:32;11.20;;;6.43;;
13079;SDS011;6606;49.154;9.280;2023-04-23T05:18:14;4.47;;;3.77;;
13079;SDS011;6606;49.154;9.280;2023-04-23T05:20:56;3.97;;;2.87;;
13079;SDS011;6606;49.154;9.280;2023-04-23T05:23:41;3.77;;;3.07;;
13079;SDS011;6606;49.154;9.280;2023-04-23T05:26:23;4.83;;;3.60;;
13079;SDS011;6606;49.154;9.280;2023-04-23T05:29:06;3.90;;;2.80;;
13079;SDS011;6606;49.154;9.280;2023-04-23T05:31:48;4.23;;;2.90;;
13079;SDS011;6606;49.154;9.280;2023-04-23T05:34:30;3.13;;;2.50;;
13079;SDS011;6606;49.154;9.280;2023-04-23T05:37:12;3.50;;;2.90;;
13079;SDS011;6606;49.154;9.280;2023-04-23T05:39:54;3.40;;;3.00;;
13079;SDS011;6606;49.154;9.280;2023-04-23T05:42:36;3.73;;;2.90;;
13079;SDS011;6606;49.154;9.280;2023-04-23T05:45:19;3.87;;;2.83;;
13079;SDS011;6606;49.154;9.280;2023-04-23T05:48:01;5.97;;;3.00;;
13079;SDS011;6606;49.154;9.280;2023-04-23T05:50:43;3.13;;;2.50;;
13079;SDS011;6606;49.154;9.280;2023-04-23T05:53:25;4.30;;;2.43;;
13079;SDS011;6606;49.154;9.280;2023-04-23T05:56:08;3.63;;;2.70;;
13079;SDS011;6606;49.154;9.280;2023-04-23T05:58:49;2.60;;;2.40;;
13079;SDS011;6606;49.154;9.280;2023-04-23T06:01:33;3.93;;;2.40;;
13079;SDS011;6606;49.154;9.280;2023-04-23T06:04:15;2.93;;;2.13;;
13079;SDS011;6606;49.154;9.280;2023-04-23T06:06:57;3.40;;;2.30;;
13079;SDS011;6606;49.154;9.280;2023-04-23T06:09:38;5.67;;;4.37;;
13079;SDS011;6606;49.154;9.280;2023-04-23T06:12:20;3.83;;;2.23;;
13079;SDS011;6606;49.154;9.280;2023-04-23T06:15:02;2.37;;;2.07;;
13079;SDS011;6606;49.154;9.280;2023-04-23T06:17:48;6.83;;;2.43;;
13079;SDS011;6606;49.154;9.280;2023-04-23T06:20:30;3.20;;;2.03;;
13079;SDS011;6606;49.154;9.280;2023-04-23T06:23:12;2.80;;;2.40;;
13079;SDS011;6606;49.154;9.280;2023-04-23T06:25:54;3.37;;;2.70;;
13079;SDS011;6606;49.154;9.280;2023-04-23T06:28:35;2.60;;;2.40;;
13079;SDS011;6606;49.154;9.280;2023-04-23T06:31:47;2.43;;;1.90;;
13079;SDS011;6606;49.154;9.280;2023-04-23T06:34:31;2.60;;;2.30;;
13079;SDS011;6606;49.154;9.280;2023-04-23T06:37:12;3.03;;;1.90;;
13079;SDS011;6606;49.154;9.280;2023-04-23T06:39:54;2.63;;;2.43;;
13079;SDS011;6606;49.154;9.280;2023-04-23T06:42:36;3.27;;;2.53;;
13079;SDS011;6606;49.154;9.280;2023-04-23T06:45:41;2.63;;;2.00;;
13079;SDS011;6606;49.154;9.280;2023-04-23T06:48:23;2.30;;;2.00;;
13079;SDS011;6606;49.154;9.280;2023-04-23T06:51:07;2.20;;;2.00;;
13079;SDS011;6606;49.154;9.280;2023-04-23T06:53:49;2.67;;;1.80;;
13079;SDS011;6606;49.154;9.280;2023-04-23T06:56:31;2.10;;;1.90;;
13079;SDS011;6606;49.154;9.280;2023-04-23T06:59:13;2.07;;;1.87;;
13079;SDS011;6606;49.154;9.280;2023-04-23T07:02:01;2.10;;;1.80;;
13079;SDS011;6606;49.154;9.280;2023-04-23T07:04:43;2.00;;;1.80;;
13079;SDS011;6606;49.154;9.280;2023-04-23T07:07:26;3.30;;;3.00;;
13079;SDS011;6606;49.154;9.280;2023-04-23T07:10:10;1.70;;;1.60;;
13079;SDS011;6606;49.154;9.280;2023-04-23T07:12:52;2.37;;;2.00;;
13079;SDS011;6606;49.154;9.280;2023-04-23T07:15:34;2.57;;;2.00;;
13079;SDS011;6606;49.154;9.280;2023-04-23T07:18:17;2.20;;;2.00;;
13079;SDS011;6606;49.154;9.280;2023-04-23T07:20:59;3.13;;;1.90;;
13079;SDS011;6606;49.154;9.280;2023-04-23T07:23:42;2.22;;;1.88;;
13079;SDS011;6606;49.154;9.280;2023-04-23T07:26:29;3.80;;;1.95;;
13079;SDS011;6606;49.154;9.280;2023-04-23T07:29:13;2.75;;;1.73;;
13079;SDS011;6606;49.154;9.280;2023-04-23T07:31:55;1.63;;;1.40;;
13079;SDS011;6606;49.154;9.280;2023-04-23T07:34:37;1.40;;;1.30;;
13079;SDS011;6606;49.154;9.280;2023-04-23T07:37:19;2.75;;;1.38;;
13079;SDS011;6606;49.154;9.280;2023-04-23T07:40:03;1.65;;;1.30;;
13079;SDS011;6606;49.154;9.280;2023-04-23T07:42:47;1.80;;;1.20;;
13079;SDS011;6606;49.154;9.280;2023-04-23T07:45:30;1.63;;;1.30;;
13079;SDS011;6606;49.154;9.280;2023-04-23T07:48:12;2.22;;;1.35;;
13079;SDS011;6606;49.154;9.280;2023-04-23T07:50:53;1.30;;;1.20;;
13079;SDS011;6606;49.154;9.280;2023-04-23T07:53:35;1.73;;;1.10;;
13079;SDS011;6606;49.154;9.280;2023-04-23T07:56:18;1.60;;;1.40;;
13079;SDS011;6606;49.154;9.280;2023-04-23T07:59:01;2.10;;;1.30;;
13079;SDS011;6606;49.154;9.280;2023-04-23T08:01:44;1.83;;;1.30;;
13079;SDS011;6606;49.154;9.280;2023-04-23T08:04:26;1.95;;;1.30;;
13079;SDS011;6606;49.154;9.280;2023-04-23T08:07:09;1.92;;;1.27;;
13079;SDS011;6606;49.154;9.280;2023-04-23T08:09:52;1.52;;;1.40;;
13079;SDS011;6606;49.154;9.280;2023-04-23T08:12:41;2.33;;;1.33;;
13079;SDS011;6606;49.154;9.280;2023-04-23T08:15:24;1.50;;;1.30;;
13079;SDS011;6606;49.154;9.280;2023-04-23T08:18:06;2.08;;;1.30;;
13079;SDS011;6606;49.154;9.280;2023-04-23T08:20:47;2.05;;;1.30;;
13079;SDS011;6606;49.154;9.280;2023-04-23T08:23:30;2.50;;;1.10;;
13079;SDS011;6606;49.154;9.280;2023-04-23T08:26:11;2.45;;;1.20;;
13079;SDS011;6606;49.154;9.280;2023-04-23T08:28:54;2.20;;;1.73;;
13079;SDS011;6606;49.154;9.280;2023-04-23T08:31:36;1.67;;;1.10;;
13079;SDS011;6606;49.154;9.280;2023-04-23T08:34:18;4.00;;;1.50;;
13079;SDS011;6606;49.154;9.280;2023-04-23T08:37:00;1.60;;;1.30;;
13079;SDS011;6606;49.154;9.280;2023-04-23T08:39:41;1.67;;;1.30;;
13079;SDS011;6606;49.154;9.280;2023-04-23T08:42:26;1.88;;;1.20;;
13079;SDS011;6606;49.154;9.280;2023-04-23T08:45:21;1.10;;;1.00;;
13079;SDS011;6606;49.154;9.280;2023-04-23T08:48:04;1.90;;;1.33;;
13079;SDS011;6606;49.154;9.280;2023-04-23T08:50:46;1.42;;;1.27;;
13079;SDS011;6606;49.154;9.280;2023-04-23T08:53:29;1.88;;;1.42;;
13079;SDS011;6606;49.154;9.280;2023-04-23T08:56:12;2.42;;;1.70;;
13079;SDS011;6606;49.154;9.280;2023-04-23T08:58:54;2.28;;;1.20;;
13079;SDS011;6606;49.154;9.280;2023-04-23T09:01:38;1.50;;;1.30;;
13079;SDS011;6606;49.154;9.280;2023-04-23T09:04:20;1.98;;;1.77;;
13079;SDS011;6606;49.154;9.280;2023-04-23T09:07:04;2.08;;;1.67;;
13079;SDS011;6606;49.154;9.280;2023-04-23T09:09:50;3.33;;;1.50;;
13079;SDS011;6606;49.154;9.280;2023-04-23T09:12:32;2.03;;;1.45;;
13079;SDS011;6606;49.154;9.280;2023-04-23T09:15:15;1.50;;;1.30;;
13079;SDS011;6606;49.154;9.280;2023-04-23T09:17:59;1.98;;;1.40;;
13079;SDS011;6606;49.154;9.280;2023-04-23T09:20:42;1.90;;;1.50;;
13079;SDS011;6606;49.154;9.280;2023-04-23T09:23:24;2.90;;;1.50;;
13079;SDS011;6606;49.154;9.280;2023-04-23T09:26:07;1.73;;;1.50;;
13079;SDS011;6606;49.154;9.280;2023-04-23T09:28:49;1.58;;;1.30;;
13079;SDS011;6606;49.154;9.280;2023-04-23T09:31:31;1.65;;;1.45;;
13079;SDS011;6606;49.154;9.280;2023-04-23T09:34:15;2.45;;;1.70;;
13079;SDS011;6606;49.154;9.280;2023-04-23T09:36:58;2.13;;;1.90;;
13079;SDS011;6606;49.154;9.280;2023-04-23T09:39:40;1.73;;;1.58;;
13079;SDS011;6606;49.154;9.280;2023-04-23T09:42:22;2.22;;;1.48;;
13079;SDS011;6606;49.154;9.280;2023-04-23T09:45:05;1.88;;;1.45;;
13079;SDS011;6606;49.154;9.280;2023-04-23T09:47:49;1.40;;;1.30;;
13079;SDS011;6606;49.154;9.280;2023-04-23T09:50:34;2.38;;;1.50;;
13079;SDS011;6606;49.154;9.280;2023-04-23T09:53:18;2.22;;;1.35;;
13079;SDS011;6606;49.154;9.280;2023-04-23T09:56:00;1.58;;;1.30;;
13079;SDS011;6606;49.154;9.280;2023-04-23T09:58:44;1.92;;;1.50;;
13079;SDS011;6606;49.154;9.280;2023-04-23T10:01:28;2.25;;;1.50;;
13079;SDS011;6606;49.154;9.280;2023-04-23T10:04:10;2.33;;;1.50;;
13079;SDS011;6606;49.154;9.280;2023-04-23T10:06:54;1.92;;;1.40;;
13079;SDS011;6606;49.154;9.280;2023-04-23T10:09:36;1.65;;;1.40;;
13079;SDS011;6606;49.154;9.280;2023-04-23T10:12:18;1.70;;;1.30;;
13079;SDS011;6606;49.154;9.280;2023-04-23T10:15:01;2.22;;;1.30;;
13079;SDS011;6606;49.154;9.280;2023-04-23T10:17:47;1.77;;;1.38;;
13079;SDS011;6606;49.154;9.280;2023-04-23T10:20:30;3.35;;;1.40;;
13079;SDS011;6606;49.154;9.280;2023-04-23T10:23:16;2.63;;;1.35;;
13079;SDS011;6606;49.154;9.280;2023-04-23T10:26:00;1.58;;;1.48;;
13079;SDS011;6606;49.154;9.280;2023-04-23T10:28:46;2.90;;;1.52;;
13079;SDS011;6606;49.154;9.280;2023-04-23T10:31:28;2.78;;;1.13;;
13079;SDS011;6606;49.154;9.280;2023-04-23T10:34:14;2.20;;;1.70;;
13079;SDS011;6606;49.154;9.280;2023-04-23T10:36:56;2.25;;;1.60;;
13079;SDS011;6606;49.154;9.280;2023-04-23T10:39:42;2.33;;;1.50;;
13079;SDS011;6606;49.154;9.280;2023-04-23T10:42:24;1.65;;;1.40;;
13079;SDS011;6606;49.154;9.280;2023-04-23T10:45:10;2.20;;;1.70;;
13079;SDS011;6606;49.154;9.280;2023-04-23T10:47:54;2.00;;;1.70;;
13079;SDS011;6606;49.154;9.280;2023-04-23T10:50:36;3.10;;;1.55;;
13079;SDS011;6606;49.154;9.280;2023-04-23T10:53:18;1.70;;;1.58;;
13079;SDS011;6606;49.154;9.280;2023-04-23T10:56:06;1.70;;;1.50;;
13079;SDS011;6606;49.154;9.280;2023-04-23T10:58:49;2.17;;;1.60;;
13079;SDS011;6606;49.154;9.280;2023-04-23T11:01:31;2.22;;;1.50;;
13079;SDS011;6606;49.154;9.280;2023-04-23T11:04:20;2.35;;;1.50;;
13079;SDS011;6606;49.154;9.280;2023-04-23T11:07:04;2.38;;;1.58;;
13079;SDS011;6606;49.154;9.280;2023-04-23T11:09:47;1.75;;;1.50;;
13079;SDS011;6606;49.154;9.280;2023-04-23T11:12:34;2.25;;;1.40;;
13079;SDS011;6606;49.154;9.280;2023-04-23T11:15:17;2.17;;;1.40;;
13079;SDS011;6606;49.154;9.280;2023-04-23T11:18:00;3.45;;;1.40;;
13079;SDS011;6606;49.154;9.280;2023-04-23T11:20:42;2.55;;;1.25;;
13079;SDS011;6606;49.154;9.280;2023-04-23T11:23:29;1.83;;;1.10;;
13079;SDS011;6606;49.154;9.280;2023-04-23T11:26:13;2.45;;;1.30;;
13079;SDS011;6606;49.154;9.280;2023-04-23T11:28:59;1.80;;;1.20;;
13079;SDS011;6606;49.154;9.280;2023-04-23T11:31:41;2.42;;;1.13;;
13079;SDS011;6606;49.154;9.280;2023-04-23T11:34:23;2.40;;;1.38;;
13079;SDS011;6606;49.154;9.280;2023-04-23T11:37:08;1.92;;;1.58;;
13079;SDS011;6606;49.154;9.280;2023-04-23T11:39:50;1.63;;;1.30;;
13079;SDS011;6606;49.154;9.280;2023-04-23T11:42:32;1.55;;;1.23;;
13079;SDS011;6606;49.154;9.280;2023-04-23T11:45:23;1.70;;;1.30;;
13079;SDS011;6606;49.154;9.280;2023-04-23T11:48:06;1.30;;;1.10;;
13079;SDS011;6606;49.154;9.280;2023-04-23T11:50:47;1.73;;;1.30;;
13079;SDS011;6606;49.154;9.280;2023-04-23T11:53:29;1.45;;;1.10;;
13079;SDS011;6606;49.154;9.280;2023-04-23T11:56:11;1.23;;;1.13;;
13079;SDS011;6606;49.154;9.280;2023-04-23T11:58:57;1.55;;;1.20;;
13079;SDS011;6606;49.154;9.280;2023-04-23T12:01:44;1.88;;;1.20;;
13079;SDS011;6606;49.154;9.280;2023-04-23T12:04:28;1.50;;;0.98;;
13079;SDS011;6606;49.154;9.280;2023-04-23T12:07:10;1.65;;;1.20;;
13079;SDS011;6606;49.154;9.280;2023-04-23T12:09:56;1.33;;;1.00;;
13079;SDS011;6606;49.154;9.280;2023-04-23T12:12:40;2.10;;;1.00;;
13079;SDS011;6606;49.154;9.280;2023-04-23T12:15:21;1.65;;;1.20;;
13079;SDS011;6606;49.154;9.280;2023-04-23T12:18:11;1.58;;;1.10;;
13079;SDS011;6606;49.154;9.280;2023-04-23T12:20:53;1.60;;;1.40;;
13079;SDS011;6606;49.154;9.280;2023-04-23T12:24:05;1.48;;;1.10;;
13079;SDS011;6606;49.154;9.280;2023-04-23T12:27:00;1.17;;;0.90;;
13079;SDS011;6606;49.154;9.280;2023-04-23T12:29:42;2.08;;;1.08;;
13079;SDS011;6606;49.154;9.280;2023-04-23T12:32:23;1.17;;;1.08;;
13079;SDS011;6606;49.154;9.280;2023-04-23T12:35:07;2.00;;;1.10;;
13079;SDS011;6606;49.154;9.280;2023-04-23T12:37:50;1.05;;;0.95;;
13079;SDS011;6606;49.154;9.280;2023-04-23T12:40:32;1.65;;;1.00;;
13079;SDS011;6606;49.154;9.280;2023-04-23T12:43:14;1.63;;;0.98;;
13079;SDS011;6606;49.154;9.280;2023-04-23T12:45:56;2.03;;;1.20;;
13079;SDS011;6606;49.154;9.280;2023-04-23T12:48:37;1.10;;;1.00;;
13079;SDS011;6606;49.154;9.280;2023-04-23T12:51:20;2.50;;;1.00;;
13079;SDS011;6606;49.154;9.280;2023-04-23T12:54:02;2.08;;;1.20;;
13079;SDS011;6606;49.154;9.280;2023-04-23T12:56:44;1.65;;;1.10;;
13079;SDS011;6606;49.154;9.280;2023-04-23T12:59:26;1.00;;;0.82;;
13079;SDS011;6606;49.154;9.280;2023-04-23T13:02:07;1.65;;;0.93;;
13079;SDS011;6606;49.154;9.280;2023-04-23T13:04:49;2.00;;;0.90;;
13079;SDS011;6606;49.154;9.280;2023-04-23T13:07:35;3.17;;;1.50;;
13079;SDS011;6606;49.154;9.280;2023-04-23T13:10:16;2.05;;;0.80;;
13079;SDS011;6606;49.154;9.280;2023-04-23T13:12:58;1.00;;;0.90;;
13079;SDS011;6606;49.154;9.280;2023-04-23T13:15:40;2.00;;;1.13;;
13079;SDS011;6606;49.154;9.280;2023-04-23T13:18:22;1.58;;;1.00;;
13079;SDS011;6606;49.154;9.280;2023-04-23T13:21:05;1.45;;;1.02;;
13079;SDS011;6606;49.154;9.280;2023-04-23T13:23:48;1.52;;;0.90;;
13079;SDS011;6606;49.154;9.280;2023-04-23T13:26:30;1.70;;;1.02;;
13079;SDS011;6606;49.154;9.280;2023-04-23T13:29:12;1.40;;;0.90;;
13079;SDS011;6606;49.154;9.280;2023-04-23T13:31:54;1.15;;;0.93;;
13079;SDS011;6606;49.154;9.280;2023-04-23T13:34:37;1.00;;;0.90;;
13079;SDS011;6606;49.154;9.280;2023-04-23T13:37:18;1.33;;;0.80;;
13079;SDS011;6606;49.154;9.280;2023-04-23T13:40:02;1.00;;;0.90;;
13079;SDS011;6606;49.154;9.280;2023-04-23T13:42:44;1.50;;;0.85;;
13079;SDS011;6606;49.154;9.280;2023-04-23T13:45:28;1.20;;;1.00;;
13079;SDS011;6606;49.154;9.280;2023-04-23T13:48:10;1.50;;;0.80;;
13079;SDS011;6606;49.154;9.280;2023-04-23T13:50:52;1.77;;;0.90;;
13079;SDS011;6606;49.154;9.280;2023-04-23T13:53:34;1.73;;;1.38;;
13079;SDS011;6606;49.154;9.280;2023-04-23T13:56:17;0.93;;;0.73;;
13079;SDS011;6606;49.154;9.280;2023-04-23T13:58:59;0.98;;;0.77;;
13079;SDS011;6606;49.154;9.280;2023-04-23T14:01:43;1.00;;;0.90;;
13079;SDS011;6606;49.154;9.280;2023-04-23T14:04:29;1.40;;;0.98;;
13079;SDS011;6606;49.154;9.280;2023-04-23T14:07:11;1.52;;;0.90;;
13079;SDS011;6606;49.154;9.280;2023-04-23T14:09:52;1.50;;;0.90;;
13079;SDS011;6606;49.154;9.280;2023-04-23T14:12:36;1.00;;;0.85;;
13079;SDS011;6606;49.154;9.280;2023-04-23T14:15:18;1.35;;;1.02;;
13079;SDS011;6606;49.154;9.280;2023-04-23T14:18:00;1.83;;;1.13;;
13079;SDS011;6606;49.154;9.280;2023-04-23T14:20:41;2.28;;;0.90;;
13079;SDS011;6606;49.154;9.280;2023-04-23T14:23:38;1.00;;;0.82;;
13079;SDS011;6606;49.154;9.280;2023-04-23T14:26:26;2.45;;;1.20;;
13079;SDS011;6606;49.154;9.280;2023-04-23T14:29:18;1.17;;;1.00;;
13079;SDS011;6606;49.154;9.280;2023-04-23T14:32:05;1.67;;;0.98;;
13079;SDS011;6606;49.154;9.280;2023-04-23T14:34:47;0.75;;;0.75;;
13079;SDS011;6606;49.154;9.280;2023-04-23T14:37:30;1.05;;;0.73;;
13079;SDS011;6606;49.154;9.280;2023-04-23T14:40:12;1.60;;;1.00;;
13079;SDS011;6606;49.154;9.280;2023-04-23T14:42:58;0.98;;;0.88;;
13079;SDS011;6606;49.154;9.280;2023-04-23T14:45:41;1.63;;;0.80;;
13079;SDS011;6606;49.154;9.280;2023-04-23T14:48:26;1.33;;;0.80;;
13079;SDS011;6606;49.154;9.280;2023-04-23T14:51:07;0.80;;;0.80;;
13079;SDS011;6606;49.154;9.280;2023-04-23T14:53:49;2.33;;;1.00;;
13079;SDS011;6606;49.154;9.280;2023-04-23T14:56:31;1.50;;;0.80;;
13079;SDS011;6606;49.154;9.280;2023-04-23T14:59:13;0.95;;;0.80;;
13079;SDS011;6606;49.154;9.280;2023-04-23T15:01:56;1.48;;;1.00;;
13079;SDS011;6606;49.154;9.280;2023-04-23T15:04:39;1.05;;;0.80;;
13079;SDS011;6606;49.154;9.280;2023-04-23T15:07:21;1.20;;;1.00;;
13079;SDS011;6606;49.154;9.280;2023-04-23T15:10:03;1.10;;;0.80;;
13079;SDS011;6606;49.154;9.280;2023-04-23T15:12:48;1.27;;;0.90;;
13079;SDS011;6606;49.154;9.280;2023-04-23T15:15:36;1.27;;;0.90;;
13079;SDS011;6606;49.154;9.280;2023-04-23T15:18:25;1.50;;;1.17;;
13079;SDS011;6606;49.154;9.280;2023-04-23T15:21:07;1.33;;;0.80;;
13079;SDS011;6606;49.154;9.280;2023-04-23T15:23:49;3.08;;;1.10;;
13079;SDS011;6606;49.154;9.280;2023-04-23T15:26:30;1.17;;;0.80;;
13079;SDS011;6606;49.154;9.280;2023-04-23T15:29:12;1.15;;;0.90;;
13079;SDS011;6606;49.154;9.280;2023-04-23T15:31:54;1.00;;;0.80;;
13079;SDS011;6606;49.154;9.280;2023-04-23T15:34:39;0.85;;;0.77;;
13079;SDS011;6606;49.154;9.280;2023-04-23T15:37:21;2.42;;;0.85;;
13079;SDS011;6606;49.154;9.280;2023-04-23T15:40:04;1.70;;;1.00;;
13079;SDS011;6606;49.154;9.280;2023-04-23T15:42:46;1.10;;;0.95;;
13079;SDS011;6606;49.154;9.280;2023-04-23T15:45:29;1.65;;;0.95;;
13079;SDS011;6606;49.154;9.280;2023-04-23T15:48:11;1.73;;;1.00;;
13079;SDS011;6606;49.154;9.280;2023-04-23T15:50:54;1.20;;;0.90;;
13079;SDS011;6606;49.154;9.280;2023-04-23T15:53:36;1.33;;;0.75;;
13079;SDS011;6606;49.154;9.280;2023-04-23T15:56:18;2.88;;;1.00;;
13079;SDS011;6606;49.154;9.280;2023-04-23T15:59:00;1.23;;;0.82;;
13079;SDS011;6606;49.154;9.280;2023-04-23T16:01:42;3.17;;;1.20;;
13079;SDS011;6606;49.154;9.280;2023-04-23T16:04:23;1.40;;;1.00;;
13079;SDS011;6606;49.154;9.280;2023-04-23T16:07:07;0.88;;;0.85;;
13079;SDS011;6606;49.154;9.280;2023-04-23T16:09:48;1.25;;;0.95;;
13079;SDS011;6606;49.154;9.280;2023-04-23T16:12:30;3.47;;;1.10;;
13079;SDS011;6606;49.154;9.280;2023-04-23T16:15:12;1.95;;;0.90;;
13079;SDS011;6606;49.154;9.280;2023-04-23T16:17:54;1.10;;;0.90;;
13079;SDS011;6606;49.154;9.280;2023-04-23T16:20:38;1.52;;;1.10;;
13079;SDS011;6606;49.154;9.280;2023-04-23T16:23:21;1.00;;;0.80;;
13079;SDS011;6606;49.154;9.280;2023-04-23T16:26:02;1.17;;;0.93;;
13079;SDS011;6606;49.154;9.280;2023-04-23T16:28:47;1.90;;;1.05;;
13079;SDS011;6606;49.154;9.280;2023-04-23T16:31:29;1.50;;;1.00;;
13079;SDS011;6606;49.154;9.280;2023-04-23T16:34:11;1.50;;;0.90;;
13079;SDS011;6606;49.154;9.280;2023-04-23T16:36:53;1.00;;;0.90;;
13079;SDS011;6606;49.154;9.280;2023-04-23T16:39:36;1.65;;;0.95;;